Time;durP1;ratioP1;P1;durP2;ratioP2;P2;SDS_P1;SDS_P2;PMS_P1;PMS_P2;Temp;Humidity;BMP_temperature;BMP_pressure;BME280_temperature;BME280_humidity;BME280_pressure;Samples;Min_cycle;Max_cycle;Signal;HPM_P1;HPM_P2
2021/09/12 00:02:04;;;;;;;17.65;11.95;;;19.80;99.90;;;;;;5068727;28;20111;-74
2021/09/12 00:04:30;;;;;;;23.63;13.13;;;19.80;99.90;;;;;;5067437;28;20030;-74
2021/09/12 00:06:56;;;;;;;18.58;12.30;;;19.70;99.90;;;;;;5063575;28;20151;-74
2021/09/12 00:09:21;;;;;;;20.50;11.80;;;19.70;99.90;;;;;;5068731;28;20376;-74
2021/09/12 00:11:47;;;;;;;18.48;11.85;;;19.70;99.90;;;;;;5067082;28;20027;-74
2021/09/12 00:14:12;;;;;;;24.10;13.52;;;19.70;99.90;;;;;;5069926;28;20415;-74
2021/09/12 00:16:38;;;;;;;17.85;10.57;;;19.70;99.90;;;;;;5068403;28;20119;-74
2021/09/12 00:19:04;;;;;;;17.20;10.77;;;19.70;99.90;;;;;;5064893;28;20436;-74
2021/09/12 00:21:30;;;;;;;18.77;10.90;;;19.60;99.90;;;;;;5068833;28;20107;-74
2021/09/12 00:23:55;;;;;;;20.38;10.60;;;19.50;99.90;;;;;;5074709;28;20070;-73
2021/09/12 00:26:21;;;;;;;18.27;10.18;;;19.50;99.90;;;;;;5064531;28;20049;-73
2021/09/12 00:28:46;;;;;;;17.38;11.35;;;19.50;99.90;;;;;;5071366;28;20417;-74
2021/09/12 00:31:12;;;;;;;17.15;10.57;;;19.50;99.90;;;;;;5062606;28;20489;-73
2021/09/12 00:33:37;;;;;;;17.33;10.23;;;19.50;99.90;;;;;;5069904;28;20028;-73
2021/09/12 00:36:04;;;;;;;19.30;11.40;;;19.40;99.90;;;;;;5069333;28;20024;-73
2021/09/12 00:38:30;;;;;;;18.38;10.60;;;19.40;99.90;;;;;;5066280;28;20114;-73
2021/09/12 00:40:59;;;;;;;15.93;9.73;;;19.30;99.90;;;;;;5086455;28;20029;-73
2021/09/12 00:43:26;;;;;;;16.92;10.25;;;19.30;99.90;;;;;;5069754;28;20041;-73
2021/09/12 00:45:57;;;;;;;14.38;9.55;;;19.30;99.90;;;;;;5073598;28;20059;-73
2021/09/12 00:48:24;;;;;;;17.02;9.75;;;19.20;99.90;;;;;;5067764;28;20040;-73
2021/09/12 00:50:51;;;;;;;17.75;10.15;;;19.20;99.90;;;;;;5070342;28;20095;-73
2021/09/12 00:53:17;;;;;;;14.25;9.27;;;19.20;99.90;;;;;;5073226;28;20031;-73
2021/09/12 00:55:45;;;;;;;15.95;8.95;;;19.10;99.90;;;;;;5066266;28;20017;-73
2021/09/12 00:58:14;;;;;;;15.07;9.40;;;19.10;99.90;;;;;;5071844;28;20129;-73
2021/09/12 01:00:43;;;;;;;14.10;9.27;;;19.10;99.90;;;;;;5065686;28;20738;-73
2021/09/12 01:03:08;;;;;;;19.83;9.07;;;19.00;99.90;;;;;;5065933;28;20180;-73
2021/09/12 01:05:34;;;;;;;14.07;8.60;;;19.00;99.90;;;;;;5066728;28;20116;-73
2021/09/12 01:08:00;;;;;;;14.05;7.60;;;18.90;99.90;;;;;;5073791;28;20051;-73
2021/09/12 01:10:26;;;;;;;19.30;10.18;;;18.90;99.90;;;;;;5066451;28;20024;-73
2021/09/12 01:12:51;;;;;;;17.63;8.40;;;18.90;99.90;;;;;;5064704;28;20025;-73
2021/09/12 01:15:17;;;;;;;11.00;7.75;;;18.90;99.90;;;;;;5062713;28;20029;-73
2021/09/12 01:17:43;;;;;;;18.98;8.90;;;18.90;99.90;;;;;;5061897;28;20059;-73
2021/09/12 01:20:09;;;;;;;13.55;8.35;;;18.80;99.90;;;;;;5065427;28;20101;-73
2021/09/12 01:22:35;;;;;;;18.90;8.65;;;18.80;99.90;;;;;;5064315;28;20028;-73
2021/09/12 01:25:01;;;;;;;15.13;8.27;;;18.80;99.90;;;;;;5062032;28;20025;-74
2021/09/12 01:27:26;;;;;;;14.00;8.18;;;18.70;99.90;;;;;;5068570;28;20044;-73
2021/09/12 01:29:52;;;;;;;14.50;8.35;;;18.70;99.90;;;;;;5063893;28;20464;-74
2021/09/12 01:32:22;;;;;;;14.60;7.88;;;18.70;99.90;;;;;;5071304;28;20036;-73
2021/09/12 01:34:47;;;;;;;13.27;7.78;;;18.60;99.90;;;;;;5062992;28;20135;-73
2021/09/12 01:37:13;;;;;;;14.05;8.05;;;18.60;99.90;;;;;;5063484;28;20150;-73
2021/09/12 01:39:39;;;;;;;13.02;7.53;;;18.50;99.90;;;;;;5063678;28;20027;-73
2021/09/12 01:42:04;;;;;;;15.95;8.40;;;18.50;99.90;;;;;;5065677;28;20039;-73
2021/09/12 01:44:30;;;;;;;16.00;7.93;;;18.40;99.90;;;;;;5059830;28;20961;-74
2021/09/12 01:46:56;;;;;;;11.30;8.45;;;18.40;99.90;;;;;;5059750;28;20025;-73
2021/09/12 01:49:23;;;;;;;11.13;7.82;;;18.40;99.90;;;;;;5058712;28;20024;-73
2021/09/12 01:51:50;;;;;;;13.90;8.07;;;18.30;99.90;;;;;;5063841;28;20105;-73
2021/09/12 01:54:16;;;;;;;13.70;7.97;;;18.30;99.90;;;;;;5064710;28;20012;-74
2021/09/12 01:56:43;;;;;;;10.48;6.63;;;18.30;99.90;;;;;;5061620;28;20045;-75
2021/09/12 01:59:09;;;;;;;15.88;7.32;;;18.20;99.90;;;;;;5061416;28;20036;-74
2021/09/12 02:01:35;;;;;;;13.75;7.40;;;18.20;99.90;;;;;;5059152;28;20028;-75
2021/09/12 02:04:01;;;;;;;12.55;7.85;;;18.10;99.90;;;;;;5059970;28;20036;-74
2021/09/12 02:06:26;;;;;;;12.50;8.20;;;18.10;99.90;;;;;;5065644;28;20082;-75
2021/09/12 02:08:52;;;;;;;17.83;8.20;;;18.00;99.90;;;;;;5061089;28;20021;-75
2021/09/12 02:11:18;;;;;;;11.80;7.35;;;18.10;99.90;;;;;;5061499;28;20032;-74
2021/09/12 02:13:44;;;;;;;14.55;7.88;;;18.00;99.90;;;;;;5061956;28;20052;-74
2021/09/12 02:16:09;;;;;;;16.08;7.55;;;18.00;99.90;;;;;;5060170;28;20025;-74
2021/09/12 02:18:35;;;;;;;12.25;7.45;;;18.00;99.90;;;;;;5060721;28;20027;-74
2021/09/12 02:21:01;;;;;;;10.75;7.03;;;18.00;99.90;;;;;;5061545;28;20025;-74
2021/09/12 02:23:26;;;;;;;15.05;7.53;;;18.00;99.90;;;;;;5065468;28;20024;-74
2021/09/12 02:25:52;;;;;;;14.50;8.05;;;17.90;99.90;;;;;;5062642;28;20086;-74
2021/09/12 02:28:18;;;;;;;18.15;8.38;;;17.90;99.90;;;;;;5080999;28;20025;-74
2021/09/12 02:30:44;;;;;;;11.38;6.32;;;17.90;99.90;;;;;;5068161;28;20031;-74
2021/09/12 02:33:10;;;;;;;13.00;7.63;;;17.90;99.90;;;;;;5065429;28;20025;-74
2021/09/12 02:35:36;;;;;;;14.30;7.72;;;17.80;99.90;;;;;;5066958;28;20484;-74
2021/09/12 02:38:02;;;;;;;11.88;7.00;;;17.90;99.90;;;;;;5067507;28;20039;-74
2021/09/12 02:40:27;;;;;;;10.75;6.43;;;17.80;99.90;;;;;;5063118;28;20481;-74
2021/09/12 02:42:54;;;;;;;13.38;7.68;;;17.80;99.90;;;;;;5070758;28;20029;-74
2021/09/12 02:45:20;;;;;;;9.15;6.65;;;17.70;99.90;;;;;;5070232;28;20154;-74
2021/09/12 02:47:45;;;;;;;16.45;7.35;;;17.70;99.90;;;;;;5076031;28;20043;-74
2021/09/12 02:50:11;;;;;;;17.48;6.88;;;17.70;99.90;;;;;;5070914;28;20455;-74
2021/09/12 02:52:37;;;;;;;13.90;7.45;;;17.70;99.90;;;;;;5068464;28;20029;-75
2021/09/12 02:55:05;;;;;;;14.23;7.10;;;17.70;99.90;;;;;;5073268;28;20488;-74
2021/09/12 02:57:30;;;;;;;13.05;6.97;;;17.60;99.90;;;;;;5067171;28;20032;-74
2021/09/12 02:59:57;;;;;;;18.08;7.25;;;17.60;99.90;;;;;;5066874;28;20485;-74
2021/09/12 03:02:23;;;;;;;11.52;6.90;;;17.60;99.90;;;;;;5068521;28;20137;-74
2021/09/12 03:04:48;;;;;;;14.13;6.65;;;17.60;99.90;;;;;;5066412;28;20079;-74
2021/09/12 03:07:14;;;;;;;17.40;7.03;;;17.50;99.90;;;;;;5066340;28;20048;-74
2021/09/12 03:09:39;;;;;;;15.73;7.13;;;17.50;99.90;;;;;;5069850;28;20070;-74
2021/09/12 03:12:05;;;;;;;10.63;6.47;;;17.50;99.90;;;;;;5072048;28;20032;-74
2021/09/12 03:14:31;;;;;;;10.50;6.85;;;17.50;99.90;;;;;;5064398;28;20440;-74
2021/09/12 03:16:57;;;;;;;13.23;7.00;;;17.50;99.90;;;;;;5064357;28;20112;-74
2021/09/12 03:19:22;;;;;;;12.98;7.22;;;17.40;99.90;;;;;;5067175;28;20100;-74
2021/09/12 03:21:48;;;;;;;11.88;6.88;;;17.40;99.90;;;;;;5069273;28;20492;-74
2021/09/12 03:24:13;;;;;;;12.45;6.93;;;17.40;99.90;;;;;;5073488;28;20116;-74
2021/09/12 03:26:39;;;;;;;11.05;6.53;;;17.40;99.90;;;;;;5066998;28;20035;-74
2021/09/12 03:29:05;;;;;;;12.50;6.90;;;17.40;99.90;;;;;;5072201;28;20025;-74
2021/09/12 03:31:30;;;;;;;12.13;6.88;;;17.30;99.90;;;;;;5064565;28;20052;-75
2021/09/12 03:33:56;;;;;;;10.70;7.57;;;17.30;99.90;;;;;;5067687;28;20077;-75
2021/09/12 03:36:22;;;;;;;13.65;7.00;;;17.40;99.90;;;;;;5063986;28;20024;-75
2021/09/12 03:38:47;;;;;;;13.80;6.70;;;17.30;99.90;;;;;;5069846;28;20051;-74
2021/09/12 03:41:13;;;;;;;13.43;8.00;;;17.30;99.90;;;;;;5072318;28;20020;-74
2021/09/12 03:43:39;;;;;;;13.32;7.65;;;17.30;99.90;;;;;;5074632;28;20542;-74
2021/09/12 03:46:04;;;;;;;15.50;7.88;;;17.30;99.90;;;;;;5074258;28;20046;-74
2021/09/12 03:48:30;;;;;;;18.05;8.68;;;17.30;99.90;;;;;;5074516;28;20473;-74
2021/09/12 03:50:55;;;;;;;16.17;9.25;;;17.30;99.90;;;;;;5072611;28;20468;-74
2021/09/12 03:53:21;;;;;;;16.50;7.50;;;17.30;99.90;;;;;;5070561;28;20401;-74
2021/09/12 03:55:47;;;;;;;14.68;7.85;;;17.20;99.90;;;;;;5066536;28;20025;-75
2021/09/12 03:58:13;;;;;;;12.93;7.32;;;17.20;99.90;;;;;;5072977;28;20033;-75
2021/09/12 04:00:39;;;;;;;12.40;7.25;;;17.20;99.90;;;;;;5067364;28;20024;-74
2021/09/12 04:03:04;;;;;;;14.98;7.63;;;17.20;99.90;;;;;;5071735;28;20013;-74
2021/09/12 04:05:30;;;;;;;13.30;7.70;;;17.20;99.90;;;;;;5066075;28;20035;-74
2021/09/12 04:07:56;;;;;;;13.32;8.02;;;17.20;99.90;;;;;;5072353;28;20390;-74
2021/09/12 04:10:22;;;;;;;18.38;10.52;;;17.10;99.90;;;;;;5070535;28;20029;-74
2021/09/12 04:12:47;;;;;;;16.58;12.10;;;17.10;99.90;;;;;;5065957;28;20056;-74
2021/09/12 04:15:13;;;;;;;21.85;10.02;;;17.10;99.90;;;;;;5067820;28;20031;-74
2021/09/12 04:17:39;;;;;;;19.65;10.50;;;17.00;99.90;;;;;;5066512;28;20431;-74
2021/09/12 04:20:05;;;;;;;19.23;11.82;;;17.00;99.90;;;;;;5075027;28;20047;-74
2021/09/12 04:22:31;;;;;;;16.98;11.25;;;17.00;99.90;;;;;;5068737;28;20108;-74
2021/09/12 04:24:56;;;;;;;22.67;14.30;;;17.00;99.90;;;;;;5070211;28;20120;-74
2021/09/12 04:27:22;;;;;;;25.98;15.38;;;17.00;99.90;;;;;;5076167;28;20492;-74
2021/09/12 04:29:48;;;;;;;27.13;14.88;;;17.00;99.90;;;;;;5069515;28;20444;-74
2021/09/12 04:32:13;;;;;;;29.35;16.40;;;16.90;99.90;;;;;;5070931;28;20682;-74
2021/09/12 04:34:39;;;;;;;30.83;17.13;;;16.90;99.90;;;;;;5063751;28;20025;-74
2021/09/12 04:37:06;;;;;;;28.58;17.50;;;16.80;99.90;;;;;;5072301;28;20031;-74
2021/09/12 04:39:32;;;;;;;28.05;16.52;;;16.80;99.90;;;;;;5067193;28;20025;-74
2021/09/12 04:41:58;;;;;;;27.02;15.95;;;16.70;99.90;;;;;;5076466;28;20082;-74
2021/09/12 04:44:23;;;;;;;25.83;15.32;;;16.80;99.90;;;;;;5068861;28;20075;-74
2021/09/12 04:46:49;;;;;;;25.17;15.88;;;16.70;99.90;;;;;;5069133;28;20447;-74
2021/09/12 04:49:15;;;;;;;24.10;15.55;;;16.70;99.90;;;;;;5071183;28;20024;-74
2021/09/12 04:51:40;;;;;;;25.27;15.10;;;16.70;99.90;;;;;;5070451;28;20028;-74
2021/09/12 04:54:06;;;;;;;24.27;15.38;;;16.70;99.90;;;;;;5083901;28;20024;-74
2021/09/12 04:56:31;;;;;;;24.80;14.27;;;16.70;99.90;;;;;;5072862;28;20028;-74
2021/09/12 04:58:57;;;;;;;21.25;12.95;;;16.70;99.90;;;;;;5075370;28;20082;-74
2021/09/12 05:01:23;;;;;;;20.50;13.68;;;16.70;99.90;;;;;;5066746;28;20112;-74
2021/09/12 05:03:51;;;;;;;19.08;12.77;;;16.70;99.90;;;;;;5075359;28;20055;-74
2021/09/12 05:06:16;;;;;;;20.67;12.82;;;16.70;99.90;;;;;;5070087;28;20027;-75
2021/09/12 05:08:42;;;;;;;20.63;12.27;;;16.70;99.90;;;;;;5070031;28;20040;-75
2021/09/12 05:11:08;;;;;;;19.77;12.10;;;16.70;99.90;;;;;;5073813;28;20473;-74
2021/09/12 05:13:36;;;;;;;18.35;12.13;;;16.60;99.90;;;;;;5067842;28;20048;-74
2021/09/12 05:16:01;;;;;;;17.77;11.45;;;16.60;99.90;;;;;;5068605;28;20055;-74
2021/09/12 05:18:27;;;;;;;20.85;12.43;;;16.60;99.90;;;;;;5065595;28;20053;-74
2021/09/12 05:20:53;;;;;;;16.70;10.25;;;16.60;99.90;;;;;;5062533;28;20419;-74
2021/09/12 05:23:18;;;;;;;21.42;11.02;;;16.60;99.90;;;;;;5061730;28;20035;-74
2021/09/12 05:25:44;;;;;;;19.92;11.60;;;16.60;99.90;;;;;;5069935;28;20533;-74
2021/09/12 05:28:10;;;;;;;20.85;10.73;;;16.60;99.90;;;;;;5071825;28;20541;-74
2021/09/12 05:30:35;;;;;;;26.13;12.20;;;16.60;99.90;;;;;;5068031;28;20472;-74
2021/09/12 05:33:01;;;;;;;17.13;10.70;;;16.60;99.90;;;;;;5069261;28;20031;-74
2021/09/12 05:35:27;;;;;;;18.73;10.85;;;16.60;99.90;;;;;;5067275;28;20559;-74
2021/09/12 05:37:52;;;;;;;15.05;10.32;;;16.50;99.90;;;;;;5070624;28;20029;-74
2021/09/12 05:40:18;;;;;;;18.13;10.30;;;16.50;99.90;;;;;;5072638;28;20008;-75
2021/09/12 05:42:44;;;;;;;14.50;10.32;;;16.50;99.90;;;;;;5070914;28;20032;-74
2021/09/12 05:45:10;;;;;;;17.80;10.63;;;16.50;99.90;;;;;;5066006;28;20028;-74
2021/09/12 05:47:37;;;;;;;18.63;10.85;;;16.40;99.90;;;;;;5069777;28;20074;-74
2021/09/12 05:50:04;;;;;;;19.38;11.18;;;16.40;99.90;;;;;;5073971;28;20097;-74
2021/09/12 05:52:29;;;;;;;13.82;9.82;;;16.30;99.90;;;;;;5066197;28;20472;-75
2021/09/12 05:54:55;;;;;;;15.55;10.85;;;16.40;99.90;;;;;;5065677;28;20071;-74
2021/09/12 05:57:21;;;;;;;13.60;10.48;;;16.30;99.90;;;;;;5062644;28;20051;-74
2021/09/12 05:59:46;;;;;;;15.35;10.30;;;16.30;99.90;;;;;;5065430;28;20016;-74
2021/09/12 06:02:13;;;;;;;15.38;10.25;;;16.30;99.90;;;;;;5067526;28;20037;-75
2021/09/12 06:04:39;;;;;;;18.40;9.75;;;16.40;99.90;;;;;;5063757;28;20020;-75
2021/09/12 06:07:05;;;;;;;15.98;10.32;;;16.30;99.90;;;;;;5071605;28;20503;-74
2021/09/12 06:09:31;;;;;;;16.27;9.82;;;16.40;99.90;;;;;;5066815;28;20056;-74
2021/09/12 06:11:56;;;;;;;14.02;10.15;;;16.40;99.90;;;;;;5068761;28;20068;-74
2021/09/12 06:14:22;;;;;;;15.68;9.85;;;16.40;99.90;;;;;;5068955;28;20023;-75
2021/09/12 06:16:48;;;;;;;17.25;10.93;;;16.40;99.90;;;;;;5064325;28;20025;-75
2021/09/12 06:19:14;;;;;;;16.42;10.40;;;16.40;99.90;;;;;;5071718;28;20029;-75
2021/09/12 06:21:39;;;;;;;13.07;10.65;;;16.40;99.90;;;;;;5069029;28;20032;-75
2021/09/12 06:24:05;;;;;;;15.52;9.77;;;16.40;99.90;;;;;;5077586;28;20024;-75
2021/09/12 06:26:30;;;;;;;14.95;10.23;;;16.30;99.90;;;;;;5065180;28;20045;-75
2021/09/12 06:28:56;;;;;;;16.63;9.73;;;16.40;99.90;;;;;;5079029;28;20025;-75
2021/09/12 06:31:23;;;;;;;16.63;10.60;;;16.30;99.90;;;;;;5066820;28;20493;-75
2021/09/12 06:33:49;;;;;;;22.83;14.43;;;16.40;99.90;;;;;;5070662;28;20108;-75
2021/09/12 06:36:15;;;;;;;22.92;14.55;;;16.40;99.90;;;;;;5062646;28;20100;-75
2021/09/12 06:38:41;;;;;;;22.02;14.52;;;16.30;99.90;;;;;;5068739;28;20031;-75
2021/09/12 06:41:07;;;;;;;22.23;13.70;;;16.30;99.90;;;;;;5076976;28;20032;-75
2021/09/12 06:43:33;;;;;;;22.27;13.82;;;16.30;99.90;;;;;;5070714;28;20035;-75
2021/09/12 06:45:58;;;;;;;15.68;11.00;;;16.40;99.90;;;;;;5087895;28;20032;-74
2021/09/12 06:48:24;;;;;;;20.48;10.73;;;16.30;99.90;;;;;;5072512;28;20403;-75
2021/09/12 06:50:51;;;;;;;17.33;11.05;;;16.40;99.90;;;;;;5071327;28;20039;-75
2021/09/12 06:53:17;;;;;;;16.90;9.05;;;16.40;99.90;;;;;;5076049;28;20370;-75
2021/09/12 06:55:43;;;;;;;15.55;8.93;;;16.40;99.90;;;;;;5070707;28;20024;-75
2021/09/12 06:58:08;;;;;;;15.40;8.65;;;16.40;99.90;;;;;;5067517;28;20024;-75
2021/09/12 07:00:35;;;;;;;17.33;8.52;;;16.40;99.90;;;;;;5065967;28;20053;-74
2021/09/12 07:03:00;;;;;;;12.00;7.95;;;16.40;99.90;;;;;;5066442;28;20017;-75
2021/09/12 07:05:26;;;;;;;15.00;8.00;;;16.50;99.90;;;;;;5067235;28;20469;-75
2021/09/12 07:07:52;;;;;;;14.70;7.82;;;16.50;99.90;;;;;;5068409;28;20029;-74
2021/09/12 07:10:18;;;;;;;14.65;7.93;;;16.50;99.90;;;;;;5064954;28;20031;-74
2021/09/12 07:12:46;;;;;;;16.80;7.97;;;16.60;99.90;;;;;;5068267;28;20029;-75
2021/09/12 07:15:13;;;;;;;13.05;7.43;;;16.70;99.90;;;;;;5068474;28;20024;-75
2021/09/12 07:17:39;;;;;;;11.90;8.15;;;16.70;99.90;;;;;;5067151;28;20058;-75
2021/09/12 07:20:06;;;;;;;12.32;6.80;;;16.80;99.90;;;;;;5066381;28;20099;-75
2021/09/12 07:22:31;;;;;;;11.35;6.22;;;16.80;99.90;;;;;;5068969;28;20089;-75
2021/09/12 07:24:57;;;;;;;9.68;6.15;;;16.80;99.90;;;;;;5070676;28;20460;-75
2021/09/12 07:27:23;;;;;;;12.25;5.90;;;16.90;99.90;;;;;;5065635;28;20371;-74
2021/09/12 07:29:49;;;;;;;8.38;6.18;;;16.90;99.90;;;;;;5069374;28;20353;-75
2021/09/12 07:32:14;;;;;;;11.45;5.72;;;17.00;99.90;;;;;;5070306;28;20098;-75
2021/09/12 07:34:40;;;;;;;10.30;5.40;;;17.00;99.90;;;;;;5065435;28;20028;-75
2021/09/12 07:37:06;;;;;;;12.27;5.50;;;17.00;99.90;;;;;;5074716;28;20392;-75
2021/09/12 07:39:33;;;;;;;10.50;5.40;;;17.00;99.90;;;;;;5068651;28;20016;-75
2021/09/12 07:41:59;;;;;;;9.98;5.18;;;17.10;99.90;;;;;;5065739;28;20132;-75
2021/09/12 07:44:25;;;;;;;12.60;4.35;;;17.10;99.90;;;;;;5064348;28;20067;-75
2021/09/12 07:46:51;;;;;;;10.07;5.25;;;17.20;99.90;;;;;;5070391;28;20118;-74
2021/09/12 07:49:17;;;;;;;11.85;4.88;;;17.30;99.90;;;;;;5073055;28;20028;-75
2021/09/12 07:51:43;;;;;;;11.68;5.80;;;17.30;99.90;;;;;;5075084;28;20056;-75
2021/09/12 07:54:08;;;;;;;11.07;5.47;;;17.50;99.90;;;;;;5076096;28;20499;-74
2021/09/12 07:56:34;;;;;;;15.48;5.20;;;17.50;99.90;;;;;;5072479;28;20040;-75
2021/09/12 07:59:00;;;;;;;9.95;6.28;;;17.50;99.90;;;;;;5067789;28;20163;-75
2021/09/12 08:01:26;;;;;;;11.90;5.40;;;17.60;99.90;;;;;;5071882;28;20025;-75
2021/09/12 08:03:51;;;;;;;10.75;5.22;;;17.60;99.90;;;;;;5072664;28;20569;-75
2021/09/12 08:06:17;;;;;;;9.85;5.40;;;17.70;99.90;;;;;;5070720;28;20111;-75
2021/09/12 08:08:42;;;;;;;9.95;4.63;;;17.90;99.90;;;;;;5074014;28;20063;-75
2021/09/12 08:11:08;;;;;;;7.53;4.28;;;17.90;99.90;;;;;;5070408;28;20020;-75
2021/09/12 08:13:34;;;;;;;9.80;4.70;;;18.00;99.90;;;;;;5076152;28;20028;-75
2021/09/12 08:15:59;;;;;;;10.77;4.63;;;18.00;99.90;;;;;;5063596;28;20040;-75
2021/09/12 08:18:25;;;;;;;12.15;5.05;;;18.10;99.90;;;;;;5069855;28;20040;-75
2021/09/12 08:20:51;;;;;;;10.65;4.93;;;18.20;99.90;;;;;;5062953;28;20078;-75
2021/09/12 08:23:16;;;;;;;8.32;4.25;;;18.20;99.90;;;;;;5071538;28;20095;-75
2021/09/12 08:25:42;;;;;;;11.95;5.13;;;18.30;99.90;;;;;;5064085;28;20473;-75
2021/09/12 08:28:07;;;;;;;12.65;5.05;;;18.50;99.90;;;;;;5064836;28;20056;-75
2021/09/12 08:30:33;;;;;;;11.00;4.97;;;18.60;99.90;;;;;;5059086;28;20033;-76
2021/09/12 08:32:59;;;;;;;11.30;5.22;;;18.60;99.90;;;;;;5073091;28;20040;-77
2021/09/12 08:35:27;;;;;;;13.88;5.85;;;18.70;99.90;;;;;;5067662;28;20028;-77
2021/09/12 08:37:53;;;;;;;13.02;5.45;;;18.60;99.90;;;;;;5070832;28;20051;-75
2021/09/12 08:40:18;;;;;;;13.18;5.40;;;18.60;99.90;;;;;;5065762;28;20021;-76
2021/09/12 08:42:46;;;;;;;12.13;4.97;;;18.60;99.90;;;;;;5062360;28;20020;-75
2021/09/12 08:45:12;;;;;;;9.25;4.82;;;18.60;99.90;;;;;;5069377;28;20075;-75
2021/09/12 08:47:40;;;;;;;8.23;4.80;;;18.80;99.90;;;;;;5073995;28;20106;-75
2021/09/12 08:50:06;;;;;;;14.60;5.07;;;18.90;99.90;;;;;;5073314;28;20031;-75
2021/09/12 08:52:32;;;;;;;10.43;4.55;;;19.00;99.90;;;;;;5076070;28;20047;-75
2021/09/12 08:54:57;;;;;;;16.73;4.50;;;19.10;99.90;;;;;;5071953;28;20028;-76
2021/09/12 08:57:23;;;;;;;11.57;4.70;;;19.20;99.90;;;;;;5066733;28;20036;-75
2021/09/12 08:59:50;;;;;;;10.48;4.30;;;19.30;99.90;;;;;;5063595;28;20487;-75
2021/09/12 09:02:23;;;;;;;10.82;4.22;;;19.20;99.90;;;;;;5062832;28;20116;-76
2021/09/12 09:04:49;;;;;;;13.63;4.53;;;19.20;99.90;;;;;;5067162;28;20374;-75
2021/09/12 09:07:15;;;;;;;12.38;4.80;;;19.30;99.90;;;;;;5052465;28;20040;-75
2021/09/12 09:09:45;;;;;;;14.30;5.05;;;19.20;99.90;;;;;;5048534;28;20037;-75
2021/09/12 09:12:31;;;;;;;9.65;5.40;;;19.30;99.90;;;;;;5058536;28;20016;-76
2021/09/12 09:15:15;;;;;;;8.60;5.80;;;19.30;99.90;;;;;;5062047;28;20042;-75
2021/09/12 09:17:44;;;;;;;13.88;5.72;;;19.40;99.90;;;;;;5054661;28;20097;-76
2021/09/12 09:20:26;;;;;;;7.45;4.43;;;19.40;99.90;;;;;;5060737;28;20372;-76
2021/09/12 09:22:57;;;;;;;12.70;5.93;;;19.40;99.90;;;;;;5062146;28;20571;-75
2021/09/12 09:25:26;;;;;;;8.88;5.43;;;19.40;99.90;;;;;;5068866;28;20111;-76
2021/09/12 09:27:56;;;;;;;12.82;5.57;;;19.40;99.90;;;;;;5075284;28;20040;-75
2021/09/12 09:30:23;;;;;;;9.38;4.97;;;19.40;99.90;;;;;;5064672;28;20032;-75
2021/09/12 09:32:49;;;;;;;9.70;5.18;;;19.40;99.90;;;;;;5068075;28;20128;-75
2021/09/12 09:35:25;;;;;;;11.15;4.38;;;19.60;99.90;;;;;;5063050;28;20435;-75
2021/09/12 09:37:52;;;;;;;10.20;4.47;;;19.90;99.90;;;;;;5063971;28;20015;-75
2021/09/12 09:40:19;;;;;;;9.70;4.55;;;20.00;99.90;;;;;;5066521;28;20079;-75
2021/09/12 09:42:46;;;;;;;10.90;4.88;;;20.20;99.90;;;;;;5058542;28;20272;-75
2021/09/12 09:45:18;;;;;;;15.27;4.75;;;20.40;99.90;;;;;;5059485;28;20112;-75
2021/09/12 09:47:47;;;;;;;16.10;5.63;;;20.50;99.90;;;;;;5062818;28;20025;-75
2021/09/12 09:50:15;;;;;;;12.57;5.38;;;20.50;99.90;;;;;;5060876;28;20282;-79
2021/09/12 09:52:47;;;;;;;9.05;4.88;;;20.50;99.90;;;;;;5061748;28;20078;-77
2021/09/12 09:55:15;;;;;;;10.75;5.32;;;20.40;99.90;;;;;;5065531;28;20021;-75
2021/09/12 09:57:48;;;;;;;11.63;4.45;;;20.40;99.90;;;;;;5063165;28;20436;-75
2021/09/12 10:00:15;;;;;;;7.85;4.57;;;20.60;99.90;;;;;;5059123;28;20020;-75
2021/09/12 10:02:41;;;;;;;9.13;4.93;;;20.60;99.90;;;;;;5071183;28;20039;-75
2021/09/12 10:05:11;;;;;;;11.98;5.18;;;20.70;99.90;;;;;;5061501;28;20025;-75
2021/09/12 10:07:40;;;;;;;11.88;3.90;;;20.80;99.90;;;;;;5071539;28;20660;-75
2021/09/12 10:10:08;;;;;;;8.07;4.32;;;20.70;99.90;;;;;;5061441;28;20263;-75
2021/09/12 10:12:51;;;;;;;6.70;3.70;;;20.70;99.90;;;;;;5072190;28;20032;-76
2021/09/12 10:15:17;;;;;;;;;;;20.70;99.90;;;;;;5060481;28;20479;-76
2021/09/12 10:17:45;;;;;;;13.18;4.10;;;20.50;99.90;;;;;;5062193;28;19970;-76
2021/09/12 10:20:13;;;;;;;7.05;4.25;;;20.40;99.90;;;;;;5074207;28;20359;-75
2021/09/12 10:22:48;;;;;;;10.75;4.03;;;20.40;99.90;;;;;;5063565;28;20039;-75
2021/09/12 10:25:15;;;;;;;9.20;4.10;;;20.40;99.90;;;;;;5067856;28;20033;-75
2021/09/12 10:27:45;;;;;;;7.38;4.55;;;20.40;99.90;;;;;;5068606;28;20048;-75
2021/09/12 10:30:28;;;;;;;10.15;4.40;;;20.50;99.90;;;;;;5067751;28;20060;-75
2021/09/12 10:33:17;;;;;;;12.25;4.43;;;20.70;99.90;;;;;;5063436;28;20013;-76
2021/09/12 10:35:46;;;;;;;10.57;4.53;;;20.90;99.90;;;;;;5068610;28;20032;-76
2021/09/12 10:38:14;;;;;;;11.57;4.20;;;21.00;99.90;;;;;;5069151;28;20021;-76
2021/09/12 10:40:48;;;;;;;8.82;4.05;;;21.10;99.90;;;;;;5070448;28;20029;-75
2021/09/12 10:43:37;;;;;;;11.30;4.10;;;21.10;99.90;;;;;;5066943;28;20025;-76
2021/09/12 10:46:08;;;;;;;9.68;4.78;;;21.30;99.90;;;;;;5062449;28;20038;-75
2021/09/12 10:48:35;;;;;;;6.75;3.80;;;21.70;99.90;;;;;;5074180;28;20120;-75
2021/09/12 10:51:05;;;;;;;8.77;4.50;;;21.80;99.90;;;;;;5081952;28;20454;-76
2021/09/12 10:53:47;;;;;;;7.80;4.22;;;21.80;99.90;;;;;;5078057;28;20039;-76
2021/09/12 10:56:13;;;;;;;10.30;4.57;;;21.80;99.90;;;;;;5075923;28;20074;-76
2021/09/12 10:58:39;;;;;;;9.25;4.03;;;21.70;99.90;;;;;;5078863;28;20028;-76
2021/09/12 11:01:06;;;;;;;6.60;4.05;;;21.80;99.90;;;;;;5073875;28;20031;-76
2021/09/12 11:03:34;;;;;;;9.27;4.28;;;22.00;99.90;;;;;;5075811;28;20027;-76
2021/09/12 11:06:00;;;;;;;8.07;4.13;;;22.00;99.90;;;;;;5077027;28;20024;-76
2021/09/12 11:08:33;;;;;;;7.60;3.58;;;22.40;99.90;;;;;;5079421;28;20035;-76
2021/09/12 11:10:59;;;;;;;;;;;22.40;99.90;;;;;;5071928;28;20447;-76
2021/09/12 11:13:25;;;;;;;7.68;4.47;;;22.20;99.90;;;;;;5073560;28;19979;-76
2021/09/12 11:15:54;;;;;;;9.00;4.80;;;22.30;99.90;;;;;;5076813;28;20016;-76
2021/09/12 11:18:20;;;;;;;9.95;5.07;;;22.50;99.90;;;;;;5074940;28;20021;-76
2021/09/12 11:20:47;;;;;;;10.43;4.70;;;22.60;99.90;;;;;;5068915;28;20020;-76
2021/09/12 11:23:32;;;;;;;7.63;5.10;;;22.60;99.90;;;;;;5069360;28;20039;-76
2021/09/12 11:25:59;;;;;;;10.15;5.40;;;22.60;99.90;;;;;;5076113;28;20038;-76
2021/09/12 11:28:27;;;;;;;10.32;4.85;;;22.70;99.90;;;;;;5078025;28;20098;-76
2021/09/12 11:30:53;;;;;;;12.13;5.40;;;23.00;99.90;;;;;;5069652;28;20075;-77
2021/09/12 11:33:19;;;;;;;8.73;5.30;;;23.20;99.90;;;;;;5073680;28;20033;-76
2021/09/12 11:35:58;;;;;;;9.18;5.55;;;23.30;99.90;;;;;;5075029;28;20099;-76
2021/09/12 11:38:27;;;;;;;9.65;4.90;;;23.20;99.90;;;;;;5074816;28;20033;-76
2021/09/12 11:40:58;;;;;;;10.02;4.57;;;23.10;99.90;;;;;;5071086;28;20437;-75
2021/09/12 11:43:25;;;;;;;9.80;4.93;;;22.80;99.90;;;;;;5073159;28;20101;-76
2021/09/12 11:46:10;;;;;;;6.30;4.47;;;22.70;99.90;;;;;;5076100;28;20027;-76
2021/09/12 11:48:40;;;;;;;7.45;4.68;;;22.70;99.90;;;;;;5066040;28;20047;-75
2021/09/12 11:51:05;;;;;;;11.30;4.78;;;22.60;99.90;;;;;;5068134;28;20025;-74
2021/09/12 11:53:32;;;;;;;6.32;5.10;;;22.70;99.90;;;;;;5072626;28;20054;-74
2021/09/12 11:56:10;;;;;;;9.57;5.07;;;22.90;99.90;;;;;;5072665;28;20473;-74
2021/09/12 11:58:37;;;;;;;10.45;5.72;;;23.20;99.90;;;;;;5073183;28;20045;-74
2021/09/12 12:01:05;;;;;;;16.73;8.30;;;23.30;99.90;;;;;;5068455;28;20473;-75
2021/09/12 12:03:30;;;;;;;9.68;5.80;;;23.20;99.90;;;;;;5066670;28;20433;-75
2021/09/12 12:05:58;;;;;;;10.18;5.53;;;23.30;99.90;;;;;;5064028;28;20049;-75
2021/09/12 12:08:24;;;;;;;7.32;4.32;;;23.30;99.90;;;;;;5073408;28;20379;-75
2021/09/12 12:10:50;;;;;;;11.95;4.50;;;23.40;99.90;;;;;;5067278;28;20097;-75
2021/09/12 12:13:16;;;;;;;7.40;4.53;;;23.50;99.90;;;;;;5072838;28;20043;-75
2021/09/12 12:15:46;;;;;;;6.63;4.55;;;23.60;99.90;;;;;;5072694;28;20202;-75
2021/09/12 12:18:15;;;;;;;9.00;4.90;;;23.50;99.90;;;;;;5068970;28;20064;-75
2021/09/12 12:20:42;;;;;;;8.70;5.07;;;23.50;99.90;;;;;;5072545;28;20108;-74
2021/09/12 12:23:19;;;;;;;9.00;5.28;;;23.30;99.90;;;;;;5066884;28;20021;-75
2021/09/12 12:25:45;;;;;;;10.13;4.40;;;23.20;99.90;;;;;;5070615;28;20064;-75
2021/09/12 12:28:16;;;;;;;9.88;4.43;;;23.30;99.90;;;;;;5074354;28;20036;-75
2021/09/12 12:30:43;;;;;;;6.32;4.07;;;23.40;99.90;;;;;;5068199;28;20051;-75
2021/09/12 12:33:10;;;;;;;8.07;4.75;;;23.60;99.90;;;;;;5065104;28;20143;-75
2021/09/12 12:35:36;;;;;;;8.27;4.80;;;23.60;99.90;;;;;;5063837;28;20017;-75